Time;durP1;ratioP1;P1;durP2;ratioP2;P2;SDS_P1;SDS_P2;PMS_P1;PMS_P2;Temp;Humidity;BMP_temperature;BMP_pressure;BME280_temperature;BME280_humidity;BME280_pressure;Samples;Min_cycle;Max_cycle;Signal;HPM_P1;HPM_P2
2021/08/18 00:01:10;;;;;;;20.50;17.70;;;14.90;99.90;;;;;;4979925;28;20217;-82
2021/08/18 00:03:36;;;;;;;20.33;17.83;;;14.90;99.90;;;;;;4980173;28;20176;-85
2021/08/18 00:06:01;;;;;;;20.23;17.07;;;14.90;99.90;;;;;;4979972;28;20270;-85
2021/08/18 00:08:27;;;;;;;21.77;17.37;;;14.90;99.90;;;;;;4993783;28;20202;-85
2021/08/18 00:10:52;;;;;;;20.07;17.97;;;14.90;99.90;;;;;;5014751;28;20175;-84
2021/08/18 00:13:18;;;;;;;19.37;17.37;;;15.00;99.90;;;;;;4996712;28;20190;-85
2021/08/18 00:15:44;;;;;;;20.83;17.63;;;14.90;99.90;;;;;;4979716;28;20325;-85
2021/08/18 00:18:10;;;;;;;21.47;17.70;;;14.90;99.90;;;;;;4979230;28;20671;-85
2021/08/18 00:20:37;;;;;;;21.10;17.63;;;14.90;99.90;;;;;;4979283;28;20208;-84
2021/08/18 00:23:02;;;;;;;22.30;17.70;;;14.90;99.90;;;;;;4995978;28;20865;-85
2021/08/18 00:25:28;;;;;;;20.00;17.07;;;14.90;99.90;;;;;;5011853;28;20173;-85
2021/08/18 00:27:54;;;;;;;20.27;18.07;;;14.90;99.90;;;;;;4995388;28;20207;-85
2021/08/18 00:30:19;;;;;;;21.63;17.83;;;14.90;99.90;;;;;;4994413;28;20696;-84
2021/08/18 00:32:45;;;;;;;19.30;17.13;;;14.90;99.90;;;;;;4995722;28;20183;-84
2021/08/18 00:35:11;;;;;;;20.83;17.50;;;14.90;99.90;;;;;;4995175;28;20176;-82
2021/08/18 00:37:36;;;;;;;20.33;18.07;;;14.90;99.90;;;;;;4995415;28;20199;-85
2021/08/18 00:40:03;;;;;;;20.27;17.90;;;14.90;99.90;;;;;;4994665;28;20180;-85
2021/08/18 00:42:28;;;;;;;20.30;17.30;;;14.90;99.90;;;;;;4995300;28;20211;-84
2021/08/18 00:44:54;;;;;;;19.50;17.13;;;14.90;99.90;;;;;;4996095;28;20198;-85
2021/08/18 00:47:20;;;;;;;19.77;17.67;;;15.00;99.90;;;;;;4995387;28;20293;-84
2021/08/18 00:49:45;;;;;;;18.77;16.77;;;15.00;99.90;;;;;;4995167;28;20273;-84
2021/08/18 00:52:11;;;;;;;20.77;17.83;;;15.00;99.90;;;;;;4995817;28;20183;-83
2021/08/18 00:54:37;;;;;;;19.87;17.37;;;15.00;99.90;;;;;;4995664;28;20180;-85
2021/08/18 00:57:02;;;;;;;19.97;17.53;;;15.00;99.90;;;;;;4995185;28;20294;-84
2021/08/18 00:59:29;;;;;;;21.57;18.53;;;15.00;99.90;;;;;;4995038;28;20192;-84
2021/08/18 01:01:55;;;;;;;19.83;17.67;;;15.00;99.90;;;;;;4978958;28;20222;-84
2021/08/18 01:04:20;;;;;;;23.07;17.87;;;15.00;99.90;;;;;;4978954;28;20203;-83
2021/08/18 01:06:46;;;;;;;21.23;18.73;;;15.00;99.90;;;;;;4994950;28;20191;-84
2021/08/18 01:09:15;;;;;;;19.63;17.53;;;15.00;99.90;;;;;;4978477;28;20660;-84
2021/08/18 01:11:41;;;;;;;23.73;18.73;;;15.00;99.90;;;;;;4979332;28;20207;-84
2021/08/18 01:14:07;;;;;;;20.77;18.43;;;15.00;99.90;;;;;;4979048;28;20186;-84
2021/08/18 01:16:43;;;;;;;21.90;18.20;;;15.00;99.90;;;;;;4978888;28;20207;-84
2021/08/18 01:19:09;;;;;;;20.03;17.60;;;15.00;99.90;;;;;;4978078;28;20183;-84
2021/08/18 01:21:38;;;;;;;21.83;19.17;;;15.00;99.90;;;;;;4978519;28;20317;-85
2021/08/18 01:24:05;;;;;;;22.63;19.20;;;15.00;99.90;;;;;;4978685;28;20231;-83
2021/08/18 01:26:31;;;;;;;21.60;17.77;;;15.00;99.90;;;;;;4978668;28;20235;-83
2021/08/18 01:28:58;;;;;;;22.03;18.10;;;15.00;99.90;;;;;;4979730;28;20634;-84
2021/08/18 01:31:23;;;;;;;18.40;16.50;;;15.10;99.90;;;;;;4979286;28;20183;-84
2021/08/18 01:33:49;;;;;;;20.27;17.90;;;15.10;99.90;;;;;;4979245;28;20187;-83
2021/08/18 01:36:14;;;;;;;20.17;16.87;;;15.10;99.90;;;;;;4995215;28;20187;-83
2021/08/18 01:38:40;;;;;;;21.30;17.30;;;15.00;99.90;;;;;;4978839;28;20199;-84
2021/08/18 01:41:05;;;;;;;19.47;17.23;;;15.00;99.90;;;;;;4979222;28;20207;-84
2021/08/18 01:43:31;;;;;;;20.07;16.20;;;15.00;99.90;;;;;;4982368;28;20184;-83
2021/08/18 01:45:57;;;;;;;18.87;16.07;;;15.00;99.90;;;;;;4984404;28;20533;-84
2021/08/18 01:48:24;;;;;;;19.53;16.00;;;15.00;99.90;;;;;;4982793;28;20203;-84
2021/08/18 01:50:54;;;;;;;18.13;14.37;;;15.00;99.90;;;;;;4983656;28;20218;-84
2021/08/18 01:53:22;;;;;;;17.23;14.70;;;15.00;99.90;;;;;;4983467;28;20183;-84
2021/08/18 01:55:47;;;;;;;17.27;14.57;;;15.00;99.90;;;;;;4983416;28;20582;-84
2021/08/18 01:58:13;;;;;;;20.10;15.57;;;15.00;99.90;;;;;;4982444;28;20210;-84
2021/08/18 02:00:39;;;;;;;15.80;14.10;;;15.00;99.90;;;;;;4981196;28;20277;-84
2021/08/18 02:03:05;;;;;;;15.00;13.40;;;15.00;99.90;;;;;;4981555;28;20176;-84
2021/08/18 02:05:31;;;;;;;16.47;14.63;;;14.90;99.90;;;;;;4981860;28;20187;-84
2021/08/18 02:07:56;;;;;;;17.17;13.60;;;14.90;99.90;;;;;;4998115;28;20196;-85
2021/08/18 02:10:22;;;;;;;15.53;13.87;;;14.90;99.90;;;;;;4981756;28;20183;-84
2021/08/18 02:12:48;;;;;;;18.10;13.43;;;14.90;99.90;;;;;;4998374;28;20172;-84
2021/08/18 02:15:16;;;;;;;15.90;13.87;;;14.90;99.90;;;;;;4998372;28;20172;-83
2021/08/18 02:17:41;;;;;;;15.07;13.10;;;14.80;99.90;;;;;;4982065;28;20287;-84
2021/08/18 02:20:09;;;;;;;18.50;13.57;;;14.80;99.90;;;;;;4981524;28;20195;-85
2021/08/18 02:22:35;;;;;;;19.07;14.37;;;14.80;99.90;;;;;;4981916;28;20568;-85
2021/08/18 02:25:00;;;;;;;19.90;14.47;;;14.80;99.90;;;;;;4998184;28;20202;-84
2021/08/18 02:27:26;;;;;;;17.23;13.67;;;14.80;99.90;;;;;;4981581;28;20595;-84
2021/08/18 02:29:52;;;;;;;16.07;13.20;;;14.80;99.90;;;;;;4981555;28;20541;-83
2021/08/18 02:32:17;;;;;;;15.63;12.97;;;14.80;99.90;;;;;;4981953;28;20564;-82
2021/08/18 02:34:43;;;;;;;18.23;13.77;;;14.80;99.90;;;;;;4981763;28;20183;-84
2021/08/18 02:37:09;;;;;;;15.60;12.53;;;14.80;99.90;;;;;;4981868;28;20210;-84
2021/08/18 02:39:36;;;;;;;14.27;12.17;;;14.70;99.90;;;;;;4980881;28;20179;-85
2021/08/18 02:42:01;;;;;;;15.47;12.27;;;14.70;99.90;;;;;;4981699;28;20701;-85
2021/08/18 02:44:27;;;;;;;17.60;12.43;;;14.70;99.90;;;;;;4981730;28;20258;-85
2021/08/18 02:46:53;;;;;;;14.93;11.53;;;14.70;99.90;;;;;;4980105;28;20727;-84
2021/08/18 02:49:18;;;;;;;13.90;11.23;;;14.70;99.90;;;;;;4981317;28;20262;-85
2021/08/18 02:51:45;;;;;;;15.10;10.47;;;14.70;99.90;;;;;;4997845;28;20183;-82
2021/08/18 02:54:10;;;;;;;14.83;10.97;;;14.70;99.90;;;;;;4981200;28;20176;-84
2021/08/18 02:56:36;;;;;;;12.53;9.77;;;14.70;99.90;;;;;;4981414;28;20225;-83
2021/08/18 02:59:01;;;;;;;11.90;9.90;;;14.70;99.90;;;;;;4997028;28;20188;-84
2021/08/18 03:01:27;;;;;;;11.23;9.47;;;14.70;99.90;;;;;;5014210;28;20242;-85
2021/08/18 03:03:53;;;;;;;13.13;9.27;;;14.70;99.90;;;;;;4997350;28;20187;-84
2021/08/18 03:06:18;;;;;;;12.87;9.50;;;14.70;99.90;;;;;;4997165;28;20283;-82
2021/08/18 03:08:44;;;;;;;11.63;9.40;;;14.70;99.90;;;;;;4997115;28;20634;-85
2021/08/18 03:11:09;;;;;;;14.37;10.37;;;14.70;99.90;;;;;;4997228;28;20171;-84
2021/08/18 03:13:35;;;;;;;13.50;10.97;;;14.70;99.90;;;;;;4981477;28;20183;-84
2021/08/18 03:16:00;;;;;;;14.53;10.53;;;14.70;99.90;;;;;;4981209;28;20638;-81
2021/08/18 03:18:27;;;;;;;13.23;11.20;;;14.70;99.90;;;;;;4980618;28;20266;-83
2021/08/18 03:20:53;;;;;;;14.57;11.43;;;14.70;99.90;;;;;;4996957;28;20218;-83
2021/08/18 03:23:19;;;;;;;15.17;10.50;;;14.70;99.90;;;;;;4981484;28;20184;-83
2021/08/18 03:25:44;;;;;;;12.97;10.90;;;14.60;99.90;;;;;;4999485;28;20199;-82
2021/08/18 03:28:10;;;;;;;12.93;10.40;;;14.60;99.90;;;;;;4983187;28;20891;-82
2021/08/18 03:30:36;;;;;;;14.70;11.33;;;14.60;99.90;;;;;;4982560;28;20179;-82
2021/08/18 03:33:01;;;;;;;21.97;12.83;;;14.60;99.90;;;;;;4983751;28;20646;-82
2021/08/18 03:35:27;;;;;;;16.07;12.67;;;14.60;99.90;;;;;;4983372;28;20270;-82
2021/08/18 03:37:53;;;;;;;15.63;12.23;;;14.60;99.90;;;;;;4983469;28;20212;-82
2021/08/18 03:40:18;;;;;;;17.37;12.37;;;14.50;99.90;;;;;;4982806;28;20183;-83
2021/08/18 03:42:44;;;;;;;18.50;12.63;;;14.50;99.90;;;;;;4984278;28;20661;-83
2021/08/18 03:45:10;;;;;;;17.50;13.33;;;14.50;99.90;;;;;;4999731;28;20592;-83
2021/08/18 03:47:37;;;;;;;17.97;13.93;;;14.50;99.90;;;;;;4984717;28;20204;-83
2021/08/18 03:50:04;;;;;;;19.33;13.67;;;14.60;99.90;;;;;;4999596;28;20410;-82
2021/08/18 03:52:29;;;;;;;19.20;14.20;;;14.50;99.90;;;;;;4999615;28;20298;-84
2021/08/18 03:54:55;;;;;;;18.50;14.27;;;14.50;99.90;;;;;;4984209;28;20207;-84
2021/08/18 03:57:21;;;;;;;18.90;13.97;;;14.50;99.90;;;;;;5020382;28;20217;-83
2021/08/18 03:59:46;;;;;;;21.53;14.53;;;14.50;99.90;;;;;;5012658;28;20194;-83
2021/08/18 04:02:12;;;;;;;20.37;14.57;;;14.60;99.90;;;;;;4984129;28;20662;-83
2021/08/18 04:04:37;;;;;;;19.30;14.67;;;14.60;99.90;;;;;;4982604;28;20184;-83
2021/08/18 04:07:03;;;;;;;20.63;13.90;;;14.50;99.90;;;;;;4983275;28;20210;-82
2021/08/18 04:09:29;;;;;;;20.47;14.60;;;14.50;99.90;;;;;;4999750;28;20187;-83
2021/08/18 04:11:54;;;;;;;19.83;14.60;;;14.50;99.90;;;;;;4983546;28;20270;-82
2021/08/18 04:14:20;;;;;;;18.83;15.00;;;14.50;99.90;;;;;;5001082;28;20179;-82
2021/08/18 04:16:45;;;;;;;18.60;14.97;;;14.60;99.90;;;;;;4984192;28;20693;-81
2021/08/18 04:19:11;;;;;;;21.87;15.17;;;14.60;99.90;;;;;;4984430;28;20183;-82
2021/08/18 04:21:36;;;;;;;20.83;15.57;;;14.60;99.90;;;;;;4983821;28;20219;-81
2021/08/18 04:24:02;;;;;;;18.97;14.97;;;14.60;99.90;;;;;;4983115;28;20554;-78
2021/08/18 04:26:28;;;;;;;20.17;15.37;;;14.60;99.90;;;;;;4982324;28;20182;-79
2021/08/18 04:28:54;;;;;;;21.67;15.70;;;14.50;99.90;;;;;;4983181;28;20764;-79
2021/08/18 04:31:20;;;;;;;22.30;16.13;;;14.60;99.90;;;;;;4982762;28;20711;-79
2021/08/18 04:33:46;;;;;;;21.60;16.20;;;14.60;99.90;;;;;;4982840;28;20187;-79
2021/08/18 04:36:11;;;;;;;19.53;15.70;;;14.60;99.90;;;;;;4983424;28;20557;-79
2021/08/18 04:38:37;;;;;;;20.30;16.50;;;14.60;99.90;;;;;;4999471;28;20190;-79
2021/08/18 04:41:02;;;;;;;21.23;15.63;;;14.60;99.90;;;;;;4998972;28;20294;-79
2021/08/18 04:43:28;;;;;;;23.73;16.97;;;14.60;99.90;;;;;;4982687;28;20180;-78
2021/08/18 04:45:53;;;;;;;23.90;17.03;;;14.60;99.90;;;;;;4998330;28;20206;-79
2021/08/18 04:48:19;;;;;;;21.27;16.77;;;14.60;99.90;;;;;;4982169;28;20199;-78
2021/08/18 04:50:45;;;;;;;20.53;16.87;;;14.60;99.90;;;;;;4982045;28;20561;-77
2021/08/18 04:53:11;;;;;;;22.10;17.60;;;14.60;99.90;;;;;;4982585;28;20222;-77
2021/08/18 04:55:37;;;;;;;24.43;16.30;;;14.60;99.90;;;;;;4982698;28;20175;-79
2021/08/18 04:58:03;;;;;;;24.57;17.37;;;14.60;99.90;;;;;;4982337;28;20582;-78
2021/08/18 05:00:29;;;;;;;27.47;18.07;;;14.70;99.90;;;;;;4981937;28;20184;-79
2021/08/18 05:02:54;;;;;;;22.33;16.80;;;14.70;99.90;;;;;;4983336;28;20179;-79
2021/08/18 05:05:20;;;;;;;21.37;16.87;;;14.70;99.90;;;;;;4982666;28;20278;-79
2021/08/18 05:07:45;;;;;;;20.80;17.17;;;14.70;99.90;;;;;;4982340;28;20245;-78
2021/08/18 05:10:12;;;;;;;22.63;16.87;;;14.80;99.90;;;;;;4987469;28;20179;-78
2021/08/18 05:12:38;;;;;;;22.37;17.53;;;14.70;99.90;;;;;;5016455;28;20529;-77
2021/08/18 05:15:04;;;;;;;24.20;17.57;;;14.70;99.90;;;;;;4997498;28;20182;-78
2021/08/18 05:17:30;;;;;;;25.07;17.20;;;14.70;99.90;;;;;;4981655;28;20689;-78
2021/08/18 05:19:56;;;;;;;23.07;17.03;;;14.80;99.90;;;;;;4981832;28;20175;-78
2021/08/18 05:22:21;;;;;;;30.53;17.37;;;14.80;99.90;;;;;;4997025;28;20203;-78
2021/08/18 05:24:47;;;;;;;22.50;16.47;;;14.70;99.90;;;;;;4996587;28;20179;-77
2021/08/18 05:27:13;;;;;;;22.90;17.93;;;14.80;99.90;;;;;;4995470;28;20196;-80
2021/08/18 05:29:38;;;;;;;22.27;18.43;;;14.80;99.90;;;;;;4979784;28;20176;-81
2021/08/18 05:32:04;;;;;;;23.73;17.57;;;14.80;99.90;;;;;;4995636;28;20189;-78
2021/08/18 05:34:30;;;;;;;22.83;17.73;;;14.80;99.90;;;;;;5012447;28;20270;-76
2021/08/18 05:36:55;;;;;;;24.53;17.97;;;14.80;99.90;;;;;;5012350;28;20232;-78
2021/08/18 05:39:21;;;;;;;23.60;18.40;;;14.90;99.90;;;;;;5011220;28;20229;-78
2021/08/18 05:41:46;;;;;;;22.57;17.93;;;14.90;99.90;;;;;;4995802;28;20256;-78
2021/08/18 05:44:12;;;;;;;24.33;17.67;;;14.90;99.90;;;;;;4996172;28;20658;-78
2021/08/18 05:46:37;;;;;;;27.03;18.67;;;15.00;99.90;;;;;;5013821;28;20200;-78
2021/08/18 05:49:03;;;;;;;23.63;17.73;;;15.00;99.90;;;;;;5012094;28;20205;-78
2021/08/18 05:51:28;;;;;;;24.33;18.13;;;15.00;99.90;;;;;;4996742;28;20183;-78
2021/08/18 05:53:54;;;;;;;26.10;18.87;;;15.10;99.90;;;;;;4995995;28;20226;-77
2021/08/18 05:56:20;;;;;;;27.53;18.53;;;15.10;99.90;;;;;;4996431;28;20176;-78
2021/08/18 05:58:45;;;;;;;21.37;18.20;;;15.10;99.90;;;;;;5027462;28;20579;-78
2021/08/18 06:01:11;;;;;;;27.07;19.27;;;15.20;99.90;;;;;;5011685;28;20254;-77
2021/08/18 06:03:36;;;;;;;25.13;18.67;;;15.20;99.90;;;;;;4995993;28;20215;-77
2021/08/18 06:06:02;;;;;;;25.03;18.30;;;15.20;99.90;;;;;;4995534;28;20175;-77
2021/08/18 06:08:28;;;;;;;26.83;17.90;;;15.30;99.90;;;;;;5012662;28;20215;-77
2021/08/18 06:10:53;;;;;;;24.17;19.00;;;15.30;99.90;;;;;;5011987;28;20180;-78
2021/08/18 06:13:19;;;;;;;21.23;17.57;;;15.30;99.90;;;;;;4997333;28;20196;-79
2021/08/18 06:15:45;;;;;;;22.67;18.00;;;15.40;99.90;;;;;;5000266;28;20191;-78
2021/08/18 06:18:10;;;;;;;24.03;17.50;;;15.40;99.90;;;;;;5031225;28;20207;-79
2021/08/18 06:20:36;;;;;;;23.57;18.40;;;15.40;99.90;;;;;;4998332;28;20282;-79
2021/08/18 06:23:02;;;;;;;22.93;17.93;;;15.40;99.90;;;;;;5014718;28;20622;-78
2021/08/18 06:25:28;;;;;;;24.20;17.43;;;15.40;99.90;;;;;;4997840;28;20234;-78
2021/08/18 06:27:53;;;;;;;23.83;18.23;;;15.50;99.90;;;;;;4997586;28;20199;-79
2021/08/18 06:30:19;;;;;;;23.53;18.07;;;15.50;99.90;;;;;;5002187;28;20175;-78
2021/08/18 06:32:45;;;;;;;19.93;17.80;;;15.60;99.90;;;;;;5018564;28;20180;-79
2021/08/18 06:35:10;;;;;;;22.87;17.40;;;15.60;99.90;;;;;;5002100;28;20207;-78
2021/08/18 06:37:36;;;;;;;20.53;18.07;;;15.60;99.90;;;;;;5016874;28;20230;-78
2021/08/18 06:40:03;;;;;;;22.30;17.70;;;15.60;99.90;;;;;;5018181;28;20164;-78
2021/08/18 06:42:29;;;;;;;20.43;17.33;;;15.60;99.90;;;;;;5001723;28;20281;-79
2021/08/18 06:44:55;;;;;;;22.47;17.47;;;15.60;99.90;;;;;;5001065;28;20230;-79
2021/08/18 06:47:20;;;;;;;22.10;16.97;;;15.70;99.90;;;;;;5001514;28;20196;-79
2021/08/18 06:49:46;;;;;;;20.57;17.60;;;15.70;99.90;;;;;;5002105;28;20266;-78
2021/08/18 06:52:12;;;;;;;20.57;16.93;;;15.70;99.90;;;;;;5001686;28;20211;-78
2021/08/18 06:54:37;;;;;;;18.57;16.43;;;15.70;99.90;;;;;;5001376;28;20274;-79
2021/08/18 06:57:03;;;;;;;23.87;16.57;;;15.70;99.90;;;;;;5001551;28;20673;-79
2021/08/18 06:59:29;;;;;;;20.43;16.37;;;15.80;99.90;;;;;;5001340;28;20183;-79
2021/08/18 07:01:54;;;;;;;20.30;16.03;;;15.80;99.90;;;;;;5001383;28;20214;-78
2021/08/18 07:04:20;;;;;;;18.93;15.57;;;15.90;99.90;;;;;;5000691;28;20184;-78
2021/08/18 07:06:46;;;;;;;17.27;14.10;;;15.90;99.90;;;;;;5000653;28;20199;-79
2021/08/18 07:09:11;;;;;;;17.37;14.63;;;15.90;99.90;;;;;;5000513;28;20457;-79
2021/08/18 07:11:37;;;;;;;19.80;14.63;;;15.90;99.90;;;;;;5018954;28;20179;-79
2021/08/18 07:14:03;;;;;;;17.77;14.40;;;16.00;99.90;;;;;;5035074;28;20186;-79
2021/08/18 07:16:29;;;;;;;17.13;14.87;;;16.00;99.90;;;;;;5002186;28;20190;-79
2021/08/18 07:18:58;;;;;;;17.23;14.30;;;16.00;99.90;;;;;;5018417;28;20236;-79
2021/08/18 07:21:24;;;;;;;18.83;13.30;;;16.00;99.90;;;;;;5017874;28;20203;-79
2021/08/18 07:23:50;;;;;;;14.03;12.17;;;16.10;99.90;;;;;;5001442;28;20203;-80
2021/08/18 07:26:16;;;;;;;14.60;12.53;;;16.20;99.90;;;;;;5017793;28;20217;-79
2021/08/18 07:28:42;;;;;;;17.10;12.73;;;16.20;99.90;;;;;;5019010;28;20192;-79
2021/08/18 07:31:08;;;;;;;13.83;12.20;;;16.20;99.90;;;;;;5002914;28;20215;-79
2021/08/18 07:33:33;;;;;;;15.97;12.00;;;16.30;99.90;;;;;;5003136;28;20188;-79
2021/08/18 07:35:59;;;;;;;13.53;11.90;;;16.30;99.90;;;;;;5002774;28;20179;-79
2021/08/18 07:38:24;;;;;;;14.33;11.53;;;16.40;99.90;;;;;;5002740;28;20242;-79
2021/08/18 07:40:50;;;;;;;13.73;11.27;;;16.40;99.90;;;;;;5003010;28;20290;-80
2021/08/18 07:43:16;;;;;;;15.40;11.60;;;16.50;99.90;;;;;;5001500;28;20187;-79
2021/08/18 07:45:41;;;;;;;14.43;10.90;;;16.60;99.90;;;;;;5001445;28;20190;-78
2021/08/18 07:48:07;;;;;;;13.50;10.40;;;16.60;99.90;;;;;;5000439;28;20541;-78
2021/08/18 07:50:33;;;;;;;13.20;10.30;;;16.70;99.90;;;;;;5001192;28;20199;-79
2021/08/18 07:52:58;;;;;;;14.23;10.53;;;16.70;99.90;;;;;;5018844;28;20168;-79
2021/08/18 07:55:24;;;;;;;14.37;10.70;;;16.70;99.90;;;;;;5002358;28;20171;-79
2021/08/18 07:57:49;;;;;;;13.53;10.57;;;16.70;99.90;;;;;;5018076;28;20272;-78
2021/08/18 08:00:16;;;;;;;13.33;9.97;;;16.80;99.90;;;;;;5001884;28;20218;-79
2021/08/18 08:02:45;;;;;;;10.43;9.07;;;16.80;99.90;;;;;;5017849;28;20211;-79
2021/08/18 08:05:11;;;;;;;10.97;8.47;;;16.80;99.90;;;;;;5018523;28;20175;-79
2021/08/18 08:07:36;;;;;;;11.77;9.23;;;16.80;99.90;;;;;;5016716;28;20200;-78
2021/08/18 08:10:05;;;;;;;13.57;9.33;;;16.90;99.90;;;;;;5016285;28;20194;-80
2021/08/18 08:12:31;;;;;;;10.83;8.60;;;16.90;99.90;;;;;;5015893;28;20194;-79
2021/08/18 08:14:56;;;;;;;10.33;7.87;;;16.90;99.90;;;;;;5016526;28;20247;-78
2021/08/18 08:17:22;;;;;;;9.67;8.60;;;16.90;99.90;;;;;;5015827;28;20222;-80
2021/08/18 08:19:47;;;;;;;12.07;8.43;;;16.90;99.90;;;;;;5009148;28;20179;-81
2021/08/18 08:22:13;;;;;;;10.30;7.97;;;16.90;99.90;;;;;;5031879;28;20211;-81
2021/08/18 08:24:38;;;;;;;8.30;7.30;;;16.90;99.90;;;;;;5019304;28;20180;-81
2021/08/18 08:27:04;;;;;;;11.20;6.57;;;17.10;99.90;;;;;;5042787;28;20790;-83
2021/08/18 08:29:30;;;;;;;8.40;6.30;;;17.10;99.90;;;;;;5033074;28;20171;-83
2021/08/18 08:31:55;;;;;;;10.00;6.53;;;17.20;99.90;;;;;;5031996;28;20874;-82
2021/08/18 08:34:22;;;;;;;8.87;6.50;;;17.30;99.90;;;;;;5032633;28;20305;-82
2021/08/18 08:36:48;;;;;;;8.23;5.67;;;17.40;99.90;;;;;;5035530;28;20208;-78
2021/08/18 08:39:13;;;;;;;9.10;5.50;;;17.50;99.90;;;;;;5019308;28;20187;-78
2021/08/18 08:41:39;;;;;;;7.77;5.50;;;17.50;99.90;;;;;;5035819;28;20206;-78
2021/08/18 08:44:05;;;;;;;7.40;5.30;;;17.50;99.90;;;;;;5036487;28;20201;-78
2021/08/18 08:46:31;;;;;;;6.40;4.80;;;17.60;99.90;;;;;;5036015;28;20672;-78
2021/08/18 08:48:56;;;;;;;6.83;4.60;;;17.70;99.90;;;;;;5035338;28;20702;-77
2021/08/18 08:51:22;;;;;;;6.40;4.77;;;17.70;99.90;;;;;;5033311;28;20672;-77
2021/08/18 08:53:47;;;;;;;7.67;4.20;;;17.80;99.90;;;;;;5035022;28;20179;-78
2021/08/18 08:56:13;;;;;;;5.60;3.90;;;17.80;99.90;;;;;;5035275;28;20183;-78
2021/08/18 08:58:38;;;;;;;5.43;4.60;;;17.80;99.90;;;;;;5036155;28;20182;-77
2021/08/18 09:01:04;;;;;;;6.17;3.93;;;17.90;99.90;;;;;;5035603;28;20241;-78
2021/08/18 09:03:29;;;;;;;5.77;3.80;;;18.00;99.90;;;;;;5036506;28;20175;-78
2021/08/18 09:06:04;;;;;;;5.93;3.60;;;18.10;99.90;;;;;;5036844;28;20617;-78
2021/08/18 09:08:29;;;;;;;4.60;3.50;;;18.20;99.90;;;;;;5037087;28;20336;-78
2021/08/18 09:11:11;;;;;;;4.93;3.40;;;18.30;99.90;;;;;;5034691;28;20206;-78
2021/08/18 09:13:46;;;;;;;5.27;3.37;;;18.30;99.90;;;;;;5050724;28;20182;-78
2021/08/18 09:16:13;;;;;;;5.53;3.40;;;18.30;99.90;;;;;;5052909;28;20182;-78
2021/08/18 09:18:44;;;;;;;6.50;3.80;;;18.30;99.90;;;;;;5035746;28;20194;-79
2021/08/18 09:21:34;;;;;;;6.03;3.70;;;18.30;99.90;;;;;;5034218;28;20238;-78
2021/08/18 09:24:12;;;;;;;4.30;3.30;;;18.40;99.90;;;;;;5034509;28;20189;-78
2021/08/18 09:27:00;;;;;;;3.83;2.83;;;18.40;99.90;;;;;;5033325;28;20190;-77
2021/08/18 09:29:36;;;;;;;3.47;2.70;;;18.50;99.90;;;;;;5033611;28;20259;-79
2021/08/18 09:32:19;;;;;;;3.93;2.73;;;18.50;99.90;;;;;;5032602;28;20175;-78
2021/08/18 09:35:12;;;;;;;3.47;2.33;;;18.50;99.90;;;;;;5035382;28;20182;-78
2021/08/18 09:37:42;;;;;;;3.63;2.60;;;18.50;99.90;;;;;;5015653;28;20218;-78
2021/08/18 09:40:21;;;;;;;4.10;2.50;;;18.50;99.90;;;;;;5035793;28;20182;-77
2021/08/18 09:42:47;;;;;;;6.23;2.80;;;18.60;99.90;;;;;;5068083;28;20215;-78
2021/08/18 09:45:16;;;;;;;3.90;2.43;;;18.60;99.90;;;;;;5035781;28;20178;-78
2021/08/18 09:48:13;;;;;;;7.07;2.73;;;18.70;99.90;;;;;;5052172;28;20194;-77
2021/08/18 09:50:41;;;;;;;2.50;2.20;;;18.70;99.90;;;;;;5054343;28;20194;-78
2021/08/18 09:53:09;;;;;;;4.10;2.43;;;18.80;99.90;;;;;;5034201;28;20179;-78
2021/08/18 09:55:35;;;;;;;3.50;2.57;;;18.80;99.90;;;;;;5018140;28;20232;-79
2021/08/18 09:58:01;;;;;;;3.00;2.50;;;19.10;99.90;;;;;;5034758;28;20293;-79
2021/08/18 10:00:27;;;;;;;3.20;2.33;;;19.20;99.90;;;;;;5017622;28;20225;-79
2021/08/18 10:02:52;;;;;;;3.20;2.23;;;19.40;99.90;;;;;;5035273;28;20211;-78
2021/08/18 10:05:18;;;;;;;3.07;2.40;;;19.50;99.90;;;;;;5022122;28;20266;-79
2021/08/18 10:07:44;;;;;;;6.13;4.70;;;19.50;99.90;;;;;;5038901;28;20231;-79
2021/08/18 10:10:10;;;;;;;3.53;2.33;;;19.80;99.90;;;;;;5038290;28;20183;-79
2021/08/18 10:12:36;;;;;;;3.80;2.50;;;20.00;99.90;;;;;;5038016;28;20187;-79
2021/08/18 10:15:03;;;;;;;3.63;2.27;;;20.10;99.90;;;;;;5038602;28;20194;-79
2021/08/18 10:17:30;;;;;;;2.93;2.10;;;20.30;99.90;;;;;;5037530;28;20198;-79
2021/08/18 10:19:56;;;;;;;2.10;1.90;;;20.50;99.90;;;;;;5038715;28;20209;-79
2021/08/18 10:22:28;;;;;;;3.80;2.00;;;20.60;99.90;;;;;;5037829;28;20222;-79
2021/08/18 10:24:54;;;;;;;3.93;2.30;;;20.70;99.90;;;;;;5038209;28;20198;-79
2021/08/18 10:27:45;;;;;;;3.43;2.33;;;20.80;99.90;;;;;;5038469;28;20198;-79
2021/08/18 10:30:24;;;;;;;5.57;2.60;;;20.80;99.90;;;;;;5055036;28;20202;-77
2021/08/18 10:32:50;;;;;;;3.67;2.30;;;20.90;99.90;;;;;;5038056;28;20179;-79
2021/08/18 10:35:34;;;;;;;4.00;2.23;;;20.90;99.90;;;;;;5037543;28;20179;-79
2021/08/18 10:38:26;;;;;;;4.40;2.17;;;20.70;99.90;;;;;;5037886;28;20221;-79
2021/08/18 10:40:52;;;;;;;4.93;2.60;;;20.60;99.90;;;;;;5039249;28;20692;-79
2021/08/18 10:43:56;;;;;;;2.90;2.10;;;20.40;99.90;;;;;;5037848;28;20187;-78
2021/08/18 10:46:22;;;;;;;4.60;2.33;;;20.40;99.90;;;;;;5013359;28;20191;-78
2021/08/18 10:48:54;;;;;;;3.80;2.77;;;20.40;99.90;;;;;;5037511;28;20546;-79
2021/08/18 10:51:41;;;;;;;3.57;2.30;;;20.60;99.90;;;;;;5038954;28;20174;-79
2021/08/18 10:54:28;;;;;;;2.97;2.60;;;20.70;99.90;;;;;;5037319;28;20183;-79
2021/08/18 10:56:58;;;;;;;4.70;2.50;;;20.80;99.90;;;;;;5036885;28;20238;-78
2021/08/18 10:59:36;;;;;;;2.53;2.27;;;20.90;99.90;;;;;;5037767;28;20186;-78
2021/08/18 11:02:07;;;;;;;3.27;2.33;;;20.80;99.90;;;;;;5023528;28;20578;-76
2021/08/18 11:04:46;;;;;;;2.40;2.20;;;20.90;99.90;;;;;;4982452;28;20190;-79
2021/08/18 11:07:12;;;;;;;3.70;2.50;;;20.90;99.90;;;;;;4998150;28;20685;-78
2021/08/18 11:09:49;;;;;;;3.10;2.20;;;20.90;99.90;;;;;;5002157;28;20180;-79
2021/08/18 11:12:40;;;;;;;3.00;2.63;;;20.90;99.90;;;;;;5018168;28;20188;-79
2021/08/18 11:15:20;;;;;;;3.43;2.70;;;21.00;99.90;;;;;;5012484;28;20294;-78
2021/08/18 11:17:47;;;;;;;2.77;2.40;;;21.00;99.90;;;;;;5012939;28;20207;-79
2021/08/18 11:20:21;;;;;;;2.90;1.63;;;21.10;99.90;;;;;;4996077;28;20277;-78
2021/08/18 11:23:06;;;;;;;2.70;1.43;;;21.00;99.90;;;;;;5029092;28;20213;-78
2021/08/18 11:25:42;;;;;;;1.97;1.47;;;20.90;99.90;;;;;;5028744;28;20180;-81
2021/08/18 11:28:07;;;;;;;2.90;1.63;;;20.80;99.90;;;;;;5030258;28;20217;-79
2021/08/18 11:30:33;;;;;;;2.00;1.50;;;20.70;99.90;;;;;;5012312;28;20180;-78
2021/08/18 11:33:20;;;;;;;2.27;1.50;;;20.80;99.90;;;;;;4995707;28;20275;-78
2021/08/18 11:35:46;;;;;;;1.93;1.30;;;20.80;99.90;;;;;;5012233;28;20174;-79
2021/08/18 11:38:12;;;;;;;2.57;1.37;;;21.00;99.90;;;;;;5012164;28;20192;-79
2021/08/18 11:40:38;;;;;;;2.47;1.40;;;21.00;99.90;;;;;;5027606;28;20254;-78
2021/08/18 11:43:04;;;;;;;1.87;1.60;;;21.20;99.90;;;;;;5011567;28;20242;-78
2021/08/18 11:45:31;;;;;;;2.17;1.50;;;21.30;99.90;;;;;;5017987;28;20747;-78
2021/08/18 11:48:11;;;;;;;1.50;1.30;;;21.50;99.90;;;;;;5026444;28;20569;-79
2021/08/18 11:50:40;;;;;;;1.40;1.13;;;21.50;99.90;;;;;;5011092;28;20282;-78
2021/08/18 11:53:07;;;;;;;1.43;1.10;;;21.40;99.90;;;;;;4995912;28;20180;-79
2021/08/18 11:55:33;;;;;;;2.97;1.20;;;21.40;99.90;;;;;;5012329;28;20176;-79
2021/08/18 11:58:04;;;;;;;1.20;1.10;;;21.40;99.90;;;;;;5011695;28;20199;-78
2021/08/18 12:00:34;;;;;;;2.93;1.30;;;21.50;99.90;;;;;;5028077;28;20175;-79
2021/08/18 12:02:59;;;;;;;2.70;1.13;;;21.50;99.90;;;;;;4996853;28;20552;-79
2021/08/18 12:05:29;;;;;;;1.37;1.10;;;21.60;99.90;;;;;;5017117;28;20237;-78
2021/08/18 12:08:05;;;;;;;2.33;1.10;;;21.70;99.90;;;;;;4998980;28;20297;-78
2021/08/18 12:10:37;;;;;;;1.80;1.23;;;21.90;99.90;;;;;;5000541;28;20183;-78
2021/08/18 12:13:07;;;;;;;1.97;1.30;;;22.00;99.90;;;;;;5025105;28;20192;-79
2021/08/18 12:15:42;;;;;;;1.63;1.20;;;22.10;99.90;;;;;;5028006;28;20302;-78
2021/08/18 12:18:32;;;;;;;1.67;1.20;;;22.10;99.90;;;;;;5027007;28;20195;-79
2021/08/18 12:21:17;;;;;;;1.53;1.40;;;22.10;99.90;;;;;;5026340;28;20238;-78
2021/08/18 12:23:43;;;;;;;2.27;1.10;;;22.00;99.90;;;;;;5012638;28;20171;-78
2021/08/18 12:26:30;;;;;;;4.03;1.60;;;21.90;99.90;;;;;;5010916;28;20635;-78
2021/08/18 12:28:57;;;;;;;3.10;1.50;;;21.70;99.90;;;;;;5047026;28;20185;-79
2021/08/18 12:31:23;;;;;;;2.20;2.00;;;21.50;99.90;;;;;;5002261;28;20187;-78
2021/08/18 12:34:08;;;;;;;3.00;2.10;;;21.40;99.90;;;;;;5028689;28;20180;-79
2021/08/18 12:36:33;;;;;;;3.70;2.30;;;21.20;99.90;;;;;;5002355;28;20203;-78